Time;durP1;ratioP1;P1;durP2;ratioP2;P2;SDS_P1;SDS_P2;PMS_P1;PMS_P2;Temp;Humidity;BMP_temperature;BMP_pressure;BME280_temperature;BME280_humidity;BME280_pressure;Samples;Min_cycle;Max_cycle;Signal;HPM_P1;HPM_P2
2022/12/31 00:00:25;;;;;;;9.40;8.50;;;;;;;;;;4936475;28;20476;-72
2022/12/31 00:03:18;;;;;;;8.40;7.70;;;;;;;;;;4938532;28;20591;-72
2022/12/31 00:06:19;;;;;;;8.13;7.53;;;;;;;;;;4940067;28;21152;-72
2022/12/31 00:09:12;;;;;;;7.97;7.33;;;;;;;;;;4939090;28;20635;-73
2022/12/31 00:12:03;;;;;;;8.70;8.00;;;;;;;;;;4945635;28;20511;-72
2022/12/31 00:14:59;;;;;;;8.23;7.50;;;;;;;;;;4941614;28;20610;-74
2022/12/31 00:17:52;;;;;;;9.00;8.20;;;;;;;;;;4947089;28;20470;-72
2022/12/31 00:20:42;;;;;;;9.13;8.40;;;;;;;;;;4947400;28;20486;-73
2022/12/31 00:23:31;;;;;;;9.63;8.73;;;;;;;;;;4947326;28;20957;-74
2022/12/31 00:26:23;;;;;;;9.73;8.90;;;;;;;;;;4950394;28;20568;-73
2022/12/31 00:29:14;;;;;;;9.30;8.50;;;;;;;;;;4948240;28;20483;-72
2022/12/31 00:32:04;;;;;;;9.33;8.43;;;;;;;;;;4949143;28;20475;-71
2022/12/31 00:34:53;;;;;;;9.60;8.80;;;;;;;;;;4949802;28;20918;-71
2022/12/31 00:37:49;;;;;;;10.27;9.37;;;;;;;;;;4948080;28;20700;-71
2022/12/31 00:40:40;;;;;;;9.77;8.63;;;;;;;;;;4945388;28;20471;-71
2022/12/31 00:43:30;;;;;;;9.27;8.53;;;;;;;;;;4952359;28;20447;-71
2022/12/31 00:46:23;;;;;;;9.10;8.30;;;;;;;;;;4946869;28;20451;-71
2022/12/31 00:49:14;;;;;;;9.03;8.23;;;;;;;;;;4946878;28;20562;-71
2022/12/31 00:52:05;;;;;;;9.23;8.20;;;;;;;;;;4943742;28;20633;-71
2022/12/31 00:54:56;;;;;;;9.53;8.73;;;;;;;;;;4940041;28;20474;-72
2022/12/31 00:57:52;;;;;;;8.90;8.10;;;;;;;;;;4939696;28;20969;-72
2022/12/31 01:00:41;;;;;;;8.83;8.13;;;;;;;;;;4944893;28;20607;-71
2022/12/31 01:03:33;;;;;;;8.57;7.80;;;;;;;;;;4942698;28;20837;-71
2022/12/31 01:06:22;;;;;;;9.17;8.27;;;;;;;;;;4939086;28;22920;-72
2022/12/31 01:09:13;;;;;;;8.53;7.50;;;;;;;;;;4944363;28;20478;-72
2022/12/31 01:12:03;;;;;;;8.43;7.60;;;;;;;;;;4943885;28;20483;-71
2022/12/31 01:14:58;;;;;;;8.00;7.20;;;;;;;;;;4945318;28;20471;-71
2022/12/31 01:17:47;;;;;;;7.83;7.13;;;;;;;;;;4942393;28;20484;-71
2022/12/31 01:20:40;;;;;;;7.07;6.47;;;;;;;;;;4945340;28;20479;-72
2022/12/31 01:23:31;;;;;;;7.70;7.00;;;;;;;;;;4943535;28;20455;-72
2022/12/31 01:26:23;;;;;;;7.37;6.73;;;;;;;;;;4944192;28;20452;-72
2022/12/31 01:29:16;;;;;;;7.10;6.50;;;;;;;;;;4951749;28;20499;-72
2022/12/31 01:32:04;;;;;;;7.03;6.33;;;;;;;;;;4945363;28;20483;-72
2022/12/31 01:34:57;;;;;;;6.53;5.93;;;;;;;;;;4946370;28;20463;-72
2022/12/31 01:37:52;;;;;;;6.43;5.93;;;;;;;;;;4941284;28;20490;-72
2022/12/31 01:40:44;;;;;;;7.77;6.93;;;;;;;;;;4945657;28;20557;-72
2022/12/31 01:43:43;;;;;;;6.63;6.00;;;;;;;;;;4947060;28;20830;-72
2022/12/31 01:46:35;;;;;;;7.00;6.30;;;;;;;;;;4946618;28;20452;-73
2022/12/31 01:49:28;;;;;;;7.00;5.90;;;;;;;;;;4944684;28;20486;-72
2022/12/31 01:52:25;;;;;;;6.80;6.30;;;;;;;;;;4945045;28;20563;-72
2022/12/31 01:55:24;;;;;;;6.90;6.30;;;;;;;;;;4939148;28;20462;-73
2022/12/31 01:58:14;;;;;;;6.93;6.20;;;;;;;;;;4945862;28;20483;-73
2022/12/31 02:01:06;;;;;;;7.10;6.40;;;;;;;;;;4942425;28;20476;-71
2022/12/31 02:03:59;;;;;;;7.63;6.90;;;;;;;;;;4943656;28;20630;-73
2022/12/31 02:06:54;;;;;;;6.50;6.00;;;;;;;;;;4943346;28;20466;-73
2022/12/31 02:09:45;;;;;;;7.27;6.60;;;;;;;;;;4950271;28;20472;-73
2022/12/31 02:12:36;;;;;;;7.67;6.90;;;;;;;;;;4949940;28;20614;-74
2022/12/31 02:15:33;;;;;;;6.60;6.00;;;;;;;;;;4944304;28;20482;-74
2022/12/31 02:18:31;;;;;;;7.37;5.87;;;;;;;;;;4942003;28;20494;-74
2022/12/31 02:21:42;;;;;;;6.20;5.70;;;;;;;;;;4941941;28;20487;-74
2022/12/31 02:24:50;;;;;;;6.13;5.73;;;;;;;;;;4944768;28;20471;-74
2022/12/31 02:27:45;;;;;;;6.77;6.13;;;;;;;;;;4945072;28;20467;-74
2022/12/31 02:30:38;;;;;;;6.80;6.10;;;;;;;;;;4945197;28;20487;-74
2022/12/31 02:33:33;;;;;;;6.40;5.80;;;;;;;;;;4946764;28;20464;-74
2022/12/31 02:36:24;;;;;;;7.37;6.67;;;;;;;;;;4949014;28;20444;-74
2022/12/31 02:39:14;;;;;;;6.20;5.70;;;;;;;;;;4946441;28;20483;-74
2022/12/31 02:42:03;;;;;;;6.13;5.63;;;;;;;;;;4949635;28;21037;-73
2022/12/31 02:44:52;;;;;;;5.73;5.27;;;;;;;;;;4949211;28;20463;-74
2022/12/31 02:47:51;;;;;;;6.43;5.93;;;;;;;;;;4947603;28;20846;-74
2022/12/31 02:50:54;;;;;;;5.93;5.33;;;;;;;;;;4942361;28;20510;-73
2022/12/31 02:54:00;;;;;;;6.20;5.67;;;;;;;;;;4949059;28;20468;-74
2022/12/31 02:57:01;;;;;;;6.13;5.63;;;;;;;;;;4943465;28;20859;-73
2022/12/31 03:03:03;;;;;;;5.33;4.93;;;;;;;;;;4944682;28;20574;-73
2022/12/31 03:05:53;;;;;;;5.47;5.03;;;;;;;;;;4938802;28;20464;-74
2022/12/31 03:14:57;;;;;;;5.30;4.90;;;;;;;;;;4948374;28;20910;-74
2022/12/31 03:17:49;;;;;;;4.90;4.40;;;;;;;;;;4938169;28;20467;-74
2022/12/31 03:26:59;;;;;;;4.17;3.87;;;;;;;;;;4940387;28;20996;-74
2022/12/31 03:29:48;;;;;;;4.97;4.57;;;;;;;;;;4947290;28;20487;-74
2022/12/31 03:32:42;;;;;;;4.67;4.27;;;;;;;;;;4941606;28;20910;-74
2022/12/31 03:35:34;;;;;;;4.00;3.70;;;;;;;;;;4932702;28;20521;-73
2022/12/31 03:38:24;;;;;;;4.77;4.00;;;;;;;;;;4943328;28;20471;-74
2022/12/31 03:41:15;;;;;;;3.47;3.27;;;;;;;;;;4941019;28;20844;-74
2022/12/31 03:44:05;;;;;;;4.03;3.80;;;;;;;;;;4945470;28;20454;-74
2022/12/31 03:46:58;;;;;;;3.43;3.13;;;;;;;;;;4948476;28;20470;-74
2022/12/31 03:52:54;;;;;;;2.93;2.73;;;;;;;;;;4943518;28;20482;-75
2022/12/31 03:55:44;;;;;;;3.20;2.90;;;;;;;;;;4951077;28;20448;-74
2022/12/31 03:58:34;;;;;;;3.13;2.90;;;;;;;;;;4944812;28;20486;-74
2022/12/31 04:01:26;;;;;;;4.03;3.07;;;;;;;;;;4949067;28;21012;-74
2022/12/31 04:04:15;;;;;;;4.00;3.67;;;;;;;;;;4945139;28;20834;-74
2022/12/31 04:07:06;;;;;;;3.70;3.40;;;;;;;;;;4939107;28;20475;-74
2022/12/31 04:09:58;;;;;;;3.43;3.23;;;;;;;;;;4948621;28;20482;-74
2022/12/31 04:12:54;;;;;;;3.93;3.60;;;;;;;;;;4943010;28;21487;-74
2022/12/31 04:15:42;;;;;;;3.80;3.50;;;;;;;;;;4946385;28;20447;-74
2022/12/31 04:18:31;;;;;;;4.07;3.77;;;;;;;;;;4947949;28;20483;-74
2022/12/31 04:21:20;;;;;;;4.20;3.80;;;;;;;;;;4940783;28;20499;-74
2022/12/31 04:24:09;;;;;;;4.00;3.70;;;;;;;;;;4946919;28;20452;-74
2022/12/31 04:27:02;;;;;;;4.73;4.40;;;;;;;;;;4949792;28;20924;-74
2022/12/31 04:29:56;;;;;;;4.40;4.10;;;;;;;;;;4947823;28;20501;-75
2022/12/31 04:32:49;;;;;;;5.10;4.70;;;;;;;;;;4945691;28;20494;-74
2022/12/31 04:35:40;;;;;;;4.73;4.40;;;;;;;;;;4947833;28;20466;-74
2022/12/31 04:38:32;;;;;;;4.60;4.30;;;;;;;;;;4944982;28;20930;-74
2022/12/31 04:41:22;;;;;;;4.80;4.40;;;;;;;;;;4944581;28;20577;-74
2022/12/31 04:44:12;;;;;;;5.90;5.50;;;;;;;;;;4946005;28;20541;-74
2022/12/31 04:47:06;;;;;;;6.00;5.50;;;;;;;;;;4946604;28;20456;-73
2022/12/31 04:49:54;;;;;;;5.80;5.40;;;;;;;;;;4954046;28;20542;-73
2022/12/31 04:52:43;;;;;;;5.57;5.17;;;;;;;;;;4957263;28;20490;-73
2022/12/31 04:55:32;;;;;;;5.17;4.70;;;;;;;;;;4951775;28;20574;-73
2022/12/31 04:58:21;;;;;;;4.50;4.20;;;;;;;;;;4955355;28;20475;-74
2022/12/31 05:01:13;;;;;;;4.50;4.13;;;;;;;;;;4958497;28;20479;-74
2022/12/31 05:04:07;;;;;;;4.40;4.10;;;;;;;;;;4953327;28;20459;-74
2022/12/31 05:06:56;;;;;;;4.47;4.17;;;;;;;;;;4943860;28;21009;-74
2022/12/31 05:09:48;;;;;;;4.70;4.30;;;;;;;;;;4945678;28;20493;-74
2022/12/31 05:12:39;;;;;;;4.67;4.30;;;;;;;;;;4946628;28;21007;-74
2022/12/31 05:15:30;;;;;;;4.20;3.80;;;;;;;;;;4942366;28;20496;-76
2022/12/31 05:18:19;;;;;;;3.60;3.30;;;;;;;;;;4943510;28;20481;-74
2022/12/31 05:21:20;;;;;;;4.03;3.67;;;;;;;;;;4945650;28;20621;-74
2022/12/31 05:24:12;;;;;;;4.47;3.23;;;;;;;;;;4942345;28;20444;-75
2022/12/31 05:27:01;;;;;;;4.13;3.50;;;;;;;;;;4940907;28;20482;-75
2022/12/31 05:29:56;;;;;;;4.10;3.80;;;;;;;;;;4940352;28;20482;-75
2022/12/31 05:32:46;;;;;;;3.03;2.83;;;;;;;;;;4940641;28;20557;-74
2022/12/31 05:35:37;;;;;;;3.20;3.00;;;;;;;;;;4940574;28;20987;-75
2022/12/31 05:38:27;;;;;;;2.93;2.73;;;;;;;;;;4941556;28;20478;-74
2022/12/31 05:41:19;;;;;;;3.00;2.80;;;;;;;;;;4940951;28;20482;-74
2022/12/31 05:44:10;;;;;;;2.83;2.60;;;;;;;;;;4943723;28;20979;-75
2022/12/31 05:47:07;;;;;;;2.70;2.50;;;;;;;;;;4949557;28;20547;-75
2022/12/31 05:49:59;;;;;;;2.40;2.20;;;;;;;;;;4943304;28;20471;-73
2022/12/31 05:52:53;;;;;;;2.53;2.33;;;;;;;;;;4939699;28;20490;-75
2022/12/31 05:55:47;;;;;;;2.20;2.10;;;;;;;;;;4950364;28;20460;-74
2022/12/31 05:58:38;;;;;;;3.10;2.90;;;;;;;;;;4949286;28;20480;-75
2022/12/31 06:01:26;;;;;;;2.77;2.57;;;;;;;;;;4945917;28;20479;-74
2022/12/31 06:04:15;;;;;;;3.10;2.80;;;;;;;;;;4944740;28;20451;-74
2022/12/31 06:07:06;;;;;;;2.60;2.40;;;;;;;;;;4939286;28;20474;-75
2022/12/31 06:09:59;;;;;;;2.60;2.50;;;;;;;;;;4947398;28;20558;-74
2022/12/31 06:12:49;;;;;;;2.53;2.33;;;;;;;;;;4950601;28;20482;-74
2022/12/31 06:15:39;;;;;;;2.20;2.07;;;;;;;;;;4942980;28;20471;-74
2022/12/31 06:18:30;;;;;;;1.73;1.63;;;;;;;;;;4947903;28;20572;-75
2022/12/31 06:21:19;;;;;;;2.20;2.00;;;;;;;;;;4939543;28;20493;-74
2022/12/31 06:24:07;;;;;;;2.10;1.90;;;;;;;;;;4948467;28;20558;-74
2022/12/31 06:26:58;;;;;;;2.03;1.93;;;;;;;;;;4949115;28;20594;-74
2022/12/31 06:29:49;;;;;;;2.47;2.17;;;;;;;;;;4944965;28;20502;-74
2022/12/31 06:32:39;;;;;;;1.93;1.80;;;;;;;;;;4946291;28;20869;-74
2022/12/31 06:35:31;;;;;;;1.70;1.60;;;;;;;;;;4948982;28;20464;-74
2022/12/31 06:38:21;;;;;;;1.40;1.40;;;;;;;;;;4943200;28;21011;-74
2022/12/31 06:41:12;;;;;;;1.67;1.57;;;;;;;;;;4941790;28;21049;-74
2022/12/31 06:44:00;;;;;;;1.50;1.40;;;;;;;;;;4947307;28;20464;-75
2022/12/31 06:46:54;;;;;;;1.40;1.30;;;;;;;;;;4941605;28;20467;-74
2022/12/31 06:49:46;;;;;;;1.80;1.70;;;;;;;;;;4947863;28;20475;-74
2022/12/31 06:52:41;;;;;;;1.10;1.10;;;;;;;;;;4941001;28;20487;-74
2022/12/31 06:55:30;;;;;;;1.07;1.07;;;;;;;;;;4952498;28;20447;-74
2022/12/31 06:58:22;;;;;;;1.00;1.00;;;;;;;;;;4945759;28;20485;-74
2022/12/31 07:01:33;;;;;;;1.13;1.03;;;;;;;;;;4949424;28;20526;-74
2022/12/31 07:04:52;;;;;;;2.33;1.37;;;;;;;;;;4947290;28;20469;-73
2022/12/31 07:07:51;;;;;;;1.07;1.07;;;;;;;;;;4886297;29;20923;-74
2022/12/31 07:10:44;;;;;;;1.10;1.10;;;;;;;;;;4946770;28;20463;-74
2022/12/31 07:13:46;;;;;;;1.23;1.17;;;;;;;;;;4947960;28;20463;-74
2022/12/31 07:16:38;;;;;;;0.90;0.90;;;;;;;;;;4949169;28;20455;-73
2022/12/31 07:19:36;;;;;;;1.10;1.00;;;;;;;;;;4945113;28;20488;-74
2022/12/31 07:22:29;;;;;;;1.20;1.10;;;;;;;;;;4941571;28;20503;-74
2022/12/31 07:25:22;;;;;;;1.40;1.30;;;;;;;;;;4946980;28;20462;-74
2022/12/31 07:28:17;;;;;;;1.10;1.10;;;;;;;;;;4947009;28;20483;-73
2022/12/31 07:31:13;;;;;;;1.10;1.03;;;;;;;;;;4945674;28;20468;-74
2022/12/31 07:34:06;;;;;;;1.10;1.00;;;;;;;;;;4949206;28;20476;-74
2022/12/31 07:36:59;;;;;;;0.80;0.80;;;;;;;;;;4947692;28;20467;-73
2022/12/31 07:39:56;;;;;;;0.80;0.80;;;;;;;;;;4945174;28;20476;-74
2022/12/31 07:42:59;;;;;;;1.63;0.90;;;;;;;;;;4941010;28;20980;-73
2022/12/31 07:45:49;;;;;;;1.20;0.80;;;;;;;;;;4946679;28;20456;-74
2022/12/31 07:48:46;;;;;;;0.87;0.87;;;;;;;;;;4948417;28;20476;-74
2022/12/31 07:51:36;;;;;;;0.93;0.90;;;;;;;;;;4945190;28;20483;-74
2022/12/31 07:54:26;;;;;;;1.50;0.90;;;;;;;;;;4942162;28;20467;-73
2022/12/31 07:57:16;;;;;;;1.03;0.90;;;;;;;;;;4945423;28;20452;-74
2022/12/31 08:00:08;;;;;;;1.43;1.07;;;;;;;;;;4941838;28;21010;-74
2022/12/31 08:03:03;;;;;;;1.80;1.13;;;;;;;;;;4938632;28;20451;-74
2022/12/31 08:05:54;;;;;;;1.33;1.10;;;;;;;;;;4946619;28;21042;-74
2022/12/31 08:08:50;;;;;;;1.43;1.17;;;;;;;;;;4929987;28;20483;-74
2022/12/31 08:11:43;;;;;;;1.30;1.20;;;;;;;;;;4942466;28;20861;-73
2022/12/31 08:14:36;;;;;;;1.20;1.10;;;;;;;;;;4941865;28;20462;-74
2022/12/31 08:17:26;;;;;;;5.43;0.80;;;;;;;;;;4944519;28;20456;-75
2022/12/31 08:20:16;;;;;;;0.70;0.70;;;;;;;;;;4944730;28;20977;-74
2022/12/31 08:23:12;;;;;;;1.00;0.80;;;;;;;;;;4943967;28;20546;-74
2022/12/31 08:26:07;;;;;;;1.20;1.10;;;;;;;;;;4946175;28;20984;-74
2022/12/31 08:28:58;;;;;;;1.53;1.27;;;;;;;;;;4941040;28;20495;-74
2022/12/31 08:31:49;;;;;;;1.50;1.40;;;;;;;;;;4937787;28;22145;-74
2022/12/31 08:34:43;;;;;;;1.80;1.50;;;;;;;;;;4933864;28;20692;-72
2022/12/31 08:37:36;;;;;;;2.00;1.40;;;;;;;;;;4937988;28;20821;-74
2022/12/31 08:40:31;;;;;;;1.30;1.20;;;;;;;;;;4943268;28;21002;-75
2022/12/31 08:43:28;;;;;;;1.63;1.53;;;;;;;;;;4942613;28;20475;-74
2022/12/31 08:46:24;;;;;;;1.40;1.30;;;;;;;;;;4945284;28;20456;-75
2022/12/31 08:49:13;;;;;;;1.27;1.10;;;;;;;;;;4940964;28;20943;-75
2022/12/31 08:52:04;;;;;;;1.17;1.17;;;;;;;;;;4931010;28;20479;-75
2022/12/31 08:54:53;;;;;;;1.60;1.33;;;;;;;;;;4941438;28;20478;-75
2022/12/31 08:57:45;;;;;;;1.57;1.47;;;;;;;;;;4931472;28;20615;-75
2022/12/31 09:00:35;;;;;;;1.53;1.40;;;;;;;;;;4940313;28;21141;-75
2022/12/31 09:03:28;;;;;;;1.40;1.30;;;;;;;;;;4941088;28;20475;-74
2022/12/31 09:06:19;;;;;;;2.23;1.50;;;;;;;;;;4946295;28;20466;-74
2022/12/31 09:09:15;;;;;;;1.50;1.40;;;;;;;;;;4948313;28;20567;-73
2022/12/31 09:12:06;;;;;;;1.53;1.40;;;;;;;;;;4951237;28;20475;-73
2022/12/31 09:14:58;;;;;;;1.80;1.70;;;;;;;;;;4951299;28;20455;-73
2022/12/31 09:17:49;;;;;;;2.40;1.70;;;;;;;;;;4946642;28;20546;-74
2022/12/31 09:20:38;;;;;;;1.80;1.70;;;;;;;;;;4947587;28;20550;-73
2022/12/31 09:23:32;;;;;;;1.77;1.67;;;;;;;;;;4937216;28;20471;-74
2022/12/31 09:26:32;;;;;;;2.20;2.10;;;;;;;;;;4918467;28;20463;-73
2022/12/31 09:29:28;;;;;;;2.43;2.27;;;;;;;;;;4926578;28;20498;-73
2022/12/31 09:32:21;;;;;;;2.97;2.33;;;;;;;;;;4939056;28;20483;-73
2022/12/31 09:35:14;;;;;;;2.50;2.33;;;;;;;;;;4930388;28;20455;-73
2022/12/31 09:38:05;;;;;;;2.40;2.20;;;;;;;;;;4937271;28;20897;-73
2022/12/31 09:41:17;;;;;;;2.80;2.60;;;;;;;;;;4938750;28;20491;-73
2022/12/31 09:44:30;;;;;;;3.00;2.70;;;;;;;;;;4944715;28;20471;-73
2022/12/31 09:47:34;;;;;;;2.60;2.40;;;;;;;;;;4924933;28;21001;-74
2022/12/31 09:50:37;;;;;;;2.60;2.40;;;;;;;;;;4940764;28;20538;-74
2022/12/31 09:53:44;;;;;;;2.27;2.07;;;;;;;;;;4937673;28;20447;-75
2022/12/31 09:56:35;;;;;;;2.20;2.00;;;;;;;;;;4927771;28;20466;-74
2022/12/31 09:59:28;;;;;;;2.07;1.93;;;;;;;;;;4928337;28;20480;-74
2022/12/31 10:02:22;;;;;;;2.50;2.30;;;;;;;;;;4935714;28;20479;-75
2022/12/31 10:05:25;;;;;;;1.97;1.87;;;;;;;;;;4944659;28;20460;-75
2022/12/31 10:08:19;;;;;;;1.83;1.50;;;;;;;;;;4934719;28;20479;-75
2022/12/31 10:11:14;;;;;;;1.63;1.53;;;;;;;;;;4930505;28;20957;-75
2022/12/31 10:14:08;;;;;;;1.57;1.40;;;;;;;;;;4933985;28;20464;-74
2022/12/31 10:17:06;;;;;;;1.60;1.50;;;;;;;;;;4916011;28;20484;-75
2022/12/31 10:20:10;;;;;;;1.43;1.37;;;;;;;;;;4934535;28;20464;-72
2022/12/31 10:23:07;;;;;;;1.80;1.70;;;;;;;;;;4937791;28;23574;-73
2022/12/31 10:26:06;;;;;;;1.80;1.70;;;;;;;;;;4942582;28;20455;-73
2022/12/31 10:28:58;;;;;;;1.97;1.67;;;;;;;;;;4935886;28;20557;-73
2022/12/31 10:31:51;;;;;;;1.73;1.63;;;;;;;;;;4937278;28;20494;-73
2022/12/31 10:34:47;;;;;;;1.40;1.30;;;;;;;;;;4928224;28;20463;-74
2022/12/31 10:37:41;;;;;;;1.53;1.40;;;;;;;;;;4938960;28;20575;-72
2022/12/31 10:40:35;;;;;;;1.27;1.17;;;;;;;;;;4940195;28;20483;-73
2022/12/31 10:43:35;;;;;;;2.07;1.23;;;;;;;;;;4931886;28;21493;-73
2022/12/31 10:46:38;;;;;;;1.50;1.17;;;;;;;;;;4933505;28;20462;-74
2022/12/31 10:49:42;;;;;;;1.13;1.13;;;;;;;;;;4938145;28;20487;-74
2022/12/31 10:52:52;;;;;;;1.20;1.10;;;;;;;;;;4939214;28;20479;-74
2022/12/31 10:56:01;;;;;;;1.40;1.30;;;;;;;;;;4931788;28;21104;-75
2022/12/31 10:59:11;;;;;;;1.17;1.10;;;;;;;;;;4936557;28;20472;-74
2022/12/31 11:02:05;;;;;;;1.30;1.30;;;;;;;;;;4929136;28;21329;-75
2022/12/31 11:05:11;;;;;;;1.63;1.50;;;;;;;;;;4941047;28;20512;-75
2022/12/31 11:08:07;;;;;;;1.60;1.50;;;;;;;;;;4945975;28;21225;-77
2022/12/31 11:11:01;;;;;;;1.77;1.67;;;;;;;;;;4947015;28;20475;-75
2022/12/31 11:13:58;;;;;;;1.90;1.80;;;;;;;;;;4941137;28;20463;-74
2022/12/31 11:17:01;;;;;;;2.60;2.17;;;;;;;;;;4940270;28;20459;-76
2022/12/31 11:19:56;;;;;;;1.97;1.87;;;;;;;;;;4945383;28;20549;-75
2022/12/31 11:22:53;;;;;;;1.73;1.63;;;;;;;;;;4936230;28;21629;-73
2022/12/31 11:25:46;;;;;;;1.60;1.50;;;;;;;;;;4948606;28;20486;-74
2022/12/31 11:29:01;;;;;;;1.50;1.40;;;;;;;;;;4947953;28;20991;-74
2022/12/31 11:32:14;;;;;;;1.47;1.40;;;;;;;;;;4945814;28;20494;-73
2022/12/31 11:35:21;;;;;;;2.13;1.40;;;;;;;;;;4941452;28;20459;-74
2022/12/31 11:38:16;;;;;;;1.80;1.40;;;;;;;;;;4944583;28;21011;-73
2022/12/31 11:41:07;;;;;;;1.63;1.53;;;;;;;;;;4946371;28;20487;-75
2022/12/31 11:44:01;;;;;;;1.90;1.80;;;;;;;;;;4936935;28;20494;-74
2022/12/31 11:46:58;;;;;;;1.33;1.23;;;;;;;;;;4941698;28;20975;-74
2022/12/31 11:49:56;;;;;;;1.50;1.40;;;;;;;;;;4940889;28;20495;-72
2022/12/31 11:52:51;;;;;;;1.57;1.47;;;;;;;;;;4941277;28;20480;-72
2022/12/31 11:55:49;;;;;;;1.77;1.67;;;;;;;;;;4935724;28;20459;-72
2022/12/31 11:58:38;;;;;;;1.63;1.53;;;;;;;;;;4938089;28;20476;-73
2022/12/31 12:01:33;;;;;;;1.63;1.53;;;;;;;;;;4939030;28;20487;-72
2022/12/31 12:04:22;;;;;;;1.80;1.70;;;;;;;;;;4934284;28;20467;-72
2022/12/31 12:07:13;;;;;;;1.30;1.30;;;;;;;;;;4937848;28;20468;-73
2022/12/31 12:10:03;;;;;;;3.03;2.83;;;;;;;;;;4929554;28;20515;-72
2022/12/31 12:12:54;;;;;;;2.30;2.20;;;;;;;;;;4922006;28;20452;-73
2022/12/31 12:15:43;;;;;;;4.47;4.17;;;;;;;;;;4942942;28;20458;-74
2022/12/31 12:18:35;;;;;;;6.43;5.93;;;;;;;;;;4929017;28;20479;-74
2022/12/31 12:21:25;;;;;;;1.63;1.53;;;;;;;;;;4928822;28;20747;-77
2022/12/31 12:24:19;;;;;;;1.60;1.50;;;;;;;;;;4942161;28;20534;-75
2022/12/31 12:27:21;;;;;;;1.40;1.10;;;;;;;;;;4934616;28;21041;-74
2022/12/31 12:30:12;;;;;;;1.30;1.30;;;;;;;;;;4941842;28;22255;-75
2022/12/31 12:33:04;;;;;;;1.30;1.20;;;;;;;;;;4939017;28;20452;-73
2022/12/31 12:35:53;;;;;;;1.60;1.50;;;;;;;;;;4936357;28;20464;-74
2022/12/31 12:38:42;;;;;;;2.43;1.10;;;;;;;;;;4942519;28;20963;-74
2022/12/31 12:41:32;;;;;;;1.50;1.40;;;;;;;;;;4935325;28;20479;-73
2022/12/31 12:44:21;;;;;;;1.47;1.30;;;;;;;;;;4930941;28;20490;-72
2022/12/31 12:47:15;;;;;;;1.40;1.30;;;;;;;;;;4927917;28;20459;-73
2022/12/31 12:50:04;;;;;;;1.40;1.30;;;;;;;;;;4921995;28;20507;-74
2022/12/31 12:53:08;;;;;;;1.30;1.30;;;;;;;;;;4933321;28;20539;-74
2022/12/31 12:56:01;;;;;;;1.30;1.20;;;;;;;;;;4933109;28;20466;-74
2022/12/31 12:58:57;;;;;;;1.53;1.43;;;;;;;;;;4930806;28;20475;-74
2022/12/31 13:01:48;;;;;;;1.30;1.20;;;;;;;;;;4931861;28;20541;-73
2022/12/31 13:04:51;;;;;;;1.50;1.40;;;;;;;;;;4925531;28;20498;-73
2022/12/31 13:07:45;;;;;;;1.27;1.27;;;;;;;;;;4931697;28;20459;-73
2022/12/31 13:10:41;;;;;;;1.50;1.40;;;;;;;;;;4932453;28;20904;-73
2022/12/31 13:13:36;;;;;;;1.67;1.57;;;;;;;;;;4940706;28;20451;-74
2022/12/31 13:16:27;;;;;;;1.50;1.40;;;;;;;;;;4933712;28;20829;-73
2022/12/31 13:19:19;;;;;;;1.60;1.50;;;;;;;;;;4921515;28;20479;-75
2022/12/31 13:22:15;;;;;;;1.73;1.63;;;;;;;;;;4933532;28;20490;-74
2022/12/31 13:25:08;;;;;;;2.30;2.10;;;;;;;;;;4937969;28;20455;-72
2022/12/31 13:27:59;;;;;;;3.70;3.40;;;;;;;;;;4940041;28;20452;-74
2022/12/31 13:30:49;;;;;;;1.37;1.30;;;;;;;;;;4941736;28;20483;-74
2022/12/31 13:33:41;;;;;;;1.60;1.50;;;;;;;;;;4940633;28;20682;-74
2022/12/31 13:36:31;;;;;;;1.30;1.30;;;;;;;;;;4924381;28;20465;-73
2022/12/31 13:39:24;;;;;;;1.50;1.40;;;;;;;;;;4933941;28;20503;-73
2022/12/31 13:42:15;;;;;;;2.03;1.57;;;;;;;;;;4930235;28;20530;-75
2022/12/31 13:45:04;;;;;;;2.23;1.57;;;;;;;;;;4933451;28;20537;-74
2022/12/31 13:47:55;;;;;;;1.43;1.33;;;;;;;;;;4936085;28;20459;-75
2022/12/31 13:50:50;;;;;;;1.33;1.23;;;;;;;;;;4933821;28;20483;-75
2022/12/31 13:53:40;;;;;;;1.00;1.00;;;;;;;;;;4936738;28;20542;-75
2022/12/31 13:56:34;;;;;;;1.30;1.20;;;;;;;;;;4942981;28;20456;-75
2022/12/31 13:59:27;;;;;;;1.17;1.10;;;;;;;;;;4942001;28;20717;-73
2022/12/31 14:02:26;;;;;;;1.30;1.30;;;;;;;;;;4939642;28;20478;-74
2022/12/31 14:05:17;;;;;;;1.40;1.30;;;;;;;;;;4922648;28;20533;-75
2022/12/31 14:08:06;;;;;;;1.30;1.20;;;;;;;;;;4933476;28;20469;-75
2022/12/31 14:11:01;;;;;;;1.27;1.20;;;;;;;;;;4942090;28;21017;-73
2022/12/31 14:14:06;;;;;;;1.50;1.40;;;;;;;;;;4942653;28;20452;-73
2022/12/31 14:16:58;;;;;;;1.60;1.40;;;;;;;;;;4932925;28;20463;-74
2022/12/31 14:19:54;;;;;;;1.60;1.50;;;;;;;;;;4933940;28;21214;-73
2022/12/31 14:22:46;;;;;;;1.93;1.70;;;;;;;;;;4936994;28;20483;-74
2022/12/31 14:25:37;;;;;;;2.20;2.10;;;;;;;;;;4934222;28;20536;-74
2022/12/31 14:28:28;;;;;;;2.27;2.17;;;;;;;;;;4943649;28;20540;-74
2022/12/31 14:31:21;;;;;;;2.47;2.27;;;;;;;;;;4931675;28;20479;-74
2022/12/31 14:34:14;;;;;;;2.27;2.17;;;;;;;;;;4927618;28;20451;-73
2022/12/31 14:37:08;;;;;;;2.63;2.43;;;;;;;;;;4940290;28;20979;-75
2022/12/31 14:39:59;;;;;;;2.90;2.23;;;;;;;;;;4947164;28;20822;-76
2022/12/31 14:42:52;;;;;;;2.13;2.03;;;;;;;;;;4940258;28;21847;-74
2022/12/31 14:45:47;;;;;;;2.83;2.63;;;;;;;;;;4945106;28;20639;-74
2022/12/31 14:48:43;;;;;;;2.80;2.33;;;;;;;;;;4942227;28;20471;-75
2022/12/31 14:51:32;;;;;;;2.30;2.10;;;;;;;;;;4936535;28;20480;-72
2022/12/31 14:54:26;;;;;;;2.83;2.63;;;;;;;;;;4938294;28;20460;-73
2022/12/31 14:57:23;;;;;;;3.67;2.53;;;;;;;;;;4945960;28;20509;-73
2022/12/31 15:00:30;;;;;;;2.70;2.50;;;;;;;;;;4928498;28;20591;-75
2022/12/31 15:03:23;;;;;;;3.70;2.83;;;;;;;;;;4940899;28;20630;-73
2022/12/31 15:06:27;;;;;;;3.10;2.80;;;;;;;;;;4927418;28;20961;-74
2022/12/31 15:09:20;;;;;;;2.87;2.67;;;;;;;;;;4942597;28;20500;-73
2022/12/31 15:12:16;;;;;;;2.70;2.50;;;;;;;;;;4948825;28;20480;-74
2022/12/31 15:15:09;;;;;;;2.73;2.50;;;;;;;;;;4947226;28;20448;-74
2022/12/31 15:18:04;;;;;;;3.20;3.00;;;;;;;;;;4922959;28;20462;-74
2022/12/31 15:21:13;;;;;;;3.80;3.53;;;;;;;;;;4944240;28;20845;-74
2022/12/31 15:24:12;;;;;;;3.63;3.27;;;;;;;;;;4943295;28;20486;-74
2022/12/31 15:27:03;;;;;;;3.60;3.30;;;;;;;;;;4941086;28;20464;-74
2022/12/31 15:29:51;;;;;;;5.50;5.10;;;;;;;;;;4934495;28;21086;-74
2022/12/31 15:32:41;;;;;;;5.50;4.00;;;;;;;;;;4932347;28;20489;-74
2022/12/31 15:35:31;;;;;;;3.67;3.37;;;;;;;;;;4929545;28;21317;-74
2022/12/31 15:38:34;;;;;;;3.40;3.10;;;;;;;;;;4933976;28;20487;-74
2022/12/31 15:41:29;;;;;;;3.00;2.80;;;;;;;;;;4926680;28;20491;-74
2022/12/31 15:44:23;;;;;;;4.50;4.10;;;;;;;;;;4930408;28;22262;-74
2022/12/31 15:47:18;;;;;;;4.27;3.87;;;;;;;;;;4931932;28;21447;-74
2022/12/31 15:50:08;;;;;;;4.97;3.93;;;;;;;;;;4940050;28;20554;-73
2022/12/31 15:52:58;;;;;;;4.03;3.70;;;;;;;;;;4937465;28;20459;-74
2022/12/31 15:55:48;;;;;;;6.37;4.17;;;;;;;;;;4932644;28;20875;-74
2022/12/31 15:58:38;;;;;;;3.93;3.53;;;;;;;;;;4944003;28;20865;-75
2022/12/31 16:01:29;;;;;;;5.53;5.03;;;;;;;;;;4933295;28;20480;-74
2022/12/31 16:04:20;;;;;;;3.60;3.30;;;;;;;;;;4926237;28;20483;-74
2022/12/31 16:07:10;;;;;;;4.00;3.70;;;;;;;;;;4935189;28;20543;-73
2022/12/31 16:09:59;;;;;;;3.90;3.50;;;;;;;;;;4940051;28;20607;-76
2022/12/31 16:12:49;;;;;;;3.60;3.30;;;;;;;;;;4918366;28;20873;-76
2022/12/31 16:15:39;;;;;;;4.30;3.90;;;;;;;;;;4935394;28;20839;-76
2022/12/31 16:18:36;;;;;;;3.83;3.53;;;;;;;;;;4935784;28;20494;-76
2022/12/31 16:21:31;;;;;;;4.23;3.70;;;;;;;;;;4926788;28;20558;-76
2022/12/31 16:24:26;;;;;;;3.63;3.17;;;;;;;;;;4935548;28;20476;-76
2022/12/31 16:27:17;;;;;;;3.57;3.27;;;;;;;;;;4940565;28;20891;-77
2022/12/31 16:30:08;;;;;;;4.60;4.20;;;;;;;;;;4919378;28;20574;-77
2022/12/31 16:33:02;;;;;;;6.20;5.70;;;;;;;;;;4935343;28;20467;-76
2022/12/31 16:35:55;;;;;;;6.20;5.60;;;;;;;;;;4920038;28;20467;-76
2022/12/31 16:38:43;;;;;;;7.20;6.50;;;;;;;;;;4935990;28;20483;-79
2022/12/31 16:41:41;;;;;;;10.20;9.30;;;;;;;;;;4917294;28;21107;-76
2022/12/31 16:44:31;;;;;;;10.97;9.97;;;;;;;;;;4933354;28;20475;-76
2022/12/31 16:47:21;;;;;;;7.60;6.87;;;;;;;;;;4939994;28;20603;-75
2022/12/31 16:50:14;;;;;;;6.23;5.73;;;;;;;;;;4939285;28;20534;-75
2022/12/31 16:53:05;;;;;;;7.43;6.70;;;;;;;;;;4937099;28;20462;-76
2022/12/31 16:55:55;;;;;;;7.97;6.97;;;;;;;;;;4933431;28;20463;-75
2022/12/31 16:58:45;;;;;;;8.07;7.30;;;;;;;;;;4936894;28;20835;-75
2022/12/31 17:01:34;;;;;;;6.90;6.20;;;;;;;;;;4923608;28;27147;-75
2022/12/31 17:04:24;;;;;;;8.93;8.13;;;;;;;;;;4926795;28;20467;-77
2022/12/31 17:07:28;;;;;;;10.10;8.77;;;;;;;;;;4929335;28;22893;-75
2022/12/31 17:10:21;;;;;;;8.67;7.87;;;;;;;;;;4925618;28;20553;-76
2022/12/31 17:13:21;;;;;;;9.47;8.57;;;;;;;;;;4933595;28;21012;-75
2022/12/31 17:16:17;;;;;;;8.67;7.87;;;;;;;;;;4937263;28;20863;-76
2022/12/31 17:19:06;;;;;;;7.93;7.13;;;;;;;;;;4927351;28;20480;-74
2022/12/31 17:21:55;;;;;;;7.60;6.90;;;;;;;;;;4935852;28;20483;-75
2022/12/31 17:24:47;;;;;;;8.30;7.50;;;;;;;;;;4939029;28;20483;-77
2022/12/31 17:27:36;;;;;;;8.17;7.37;;;;;;;;;;4939030;28;20802;-75
2022/12/31 17:30:40;;;;;;;9.70;8.67;;;;;;;;;;4940499;28;20568;-74
2022/12/31 17:33:30;;;;;;;9.97;8.97;;;;;;;;;;4936659;28;20459;-74
2022/12/31 17:36:21;;;;;;;10.90;9.90;;;;;;;;;;4933657;28;20462;-74
2022/12/31 17:39:17;;;;;;;11.80;10.60;;;;;;;;;;4952714;28;20490;-74